Time;durP1;ratioP1;P1;durP2;ratioP2;P2;SDS_P1;SDS_P2;PMS_P1;PMS_P2;Temp;Humidity;BMP_temperature;BMP_pressure;BME280_temperature;BME280_humidity;BME280_pressure;Samples;Min_cycle;Max_cycle;Signal;HPM_P1;HPM_P2
2022/09/23 00:02:22;;;;;;;5.13;4.70;;;9.10;99.90;;;;;;6236056;22;20197;-80
2022/09/23 00:04:49;;;;;;;5.18;4.78;;;9.20;99.90;;;;;;6239299;23;20233;-81
2022/09/23 00:07:16;;;;;;;4.97;4.57;;;9.20;99.90;;;;;;6236609;23;20228;-81
2022/09/23 00:09:45;;;;;;;4.95;4.30;;;9.10;99.90;;;;;;6249625;22;20595;-80
2022/09/23 00:12:12;;;;;;;5.05;4.60;;;9.10;99.90;;;;;;6238469;23;20251;-80
2022/09/23 00:14:40;;;;;;;4.97;4.57;;;9.10;99.90;;;;;;6238406;23;20212;-80
2022/09/23 00:17:06;;;;;;;4.70;4.30;;;9.10;99.90;;;;;;6236630;23;20609;-81
2022/09/23 00:19:34;;;;;;;4.63;4.18;;;9.10;99.90;;;;;;6237621;23;20198;-80
2022/09/23 00:22:01;;;;;;;5.68;5.20;;;9.10;99.90;;;;;;6237892;22;20261;-81
2022/09/23 00:24:31;;;;;;;4.78;4.43;;;9.10;99.90;;;;;;6236394;22;20191;-81
2022/09/23 00:27:00;;;;;;;4.80;4.50;;;9.10;99.90;;;;;;6236862;23;20582;-81
2022/09/23 00:29:26;;;;;;;4.75;4.20;;;9.00;99.90;;;;;;6237676;23;20697;-81
2022/09/23 00:31:53;;;;;;;5.78;4.70;;;9.00;99.90;;;;;;6238725;23;20672;-81
2022/09/23 00:34:20;;;;;;;4.80;4.40;;;9.00;99.90;;;;;;6240709;23;20561;-81
2022/09/23 00:36:48;;;;;;;4.88;4.47;;;9.00;99.90;;;;;;6235595;22;20186;-81
2022/09/23 00:39:14;;;;;;;5.13;4.38;;;9.00;99.90;;;;;;6243826;22;20269;-81
2022/09/23 00:41:42;;;;;;;4.78;4.30;;;9.00;99.90;;;;;;6264283;22;20274;-81
2022/09/23 00:44:45;;;;;;;5.40;4.90;;;8.90;99.90;;;;;;6238641;23;20191;-81
2022/09/23 00:47:20;;;;;;;5.43;5.03;;;8.90;99.90;;;;;;6237916;23;20213;-81
2022/09/23 00:49:53;;;;;;;5.25;4.75;;;8.80;99.90;;;;;;6239440;23;20603;-80
2022/09/23 00:52:23;;;;;;;5.18;4.75;;;8.80;99.90;;;;;;6238969;23;20269;-80
2022/09/23 00:54:54;;;;;;;4.82;4.53;;;8.70;99.90;;;;;;6255531;22;20210;-81
2022/09/23 00:57:23;;;;;;;7.70;4.70;;;8.70;99.90;;;;;;6235804;22;20192;-81
2022/09/23 00:59:51;;;;;;;4.75;4.35;;;8.60;99.90;;;;;;6233433;23;20274;-81
2022/09/23 01:02:20;;;;;;;5.80;5.40;;;8.60;99.90;;;;;;6240096;22;20728;-80
2022/09/23 01:04:50;;;;;;;5.85;5.40;;;8.60;99.90;;;;;;6240028;23;20214;-81
2022/09/23 01:07:17;;;;;;;6.80;6.20;;;8.50;99.90;;;;;;6234796;23;20188;-81
2022/09/23 01:09:46;;;;;;;5.95;5.45;;;8.50;99.90;;;;;;6251982;22;20187;-81
2022/09/23 01:12:25;;;;;;;6.15;5.32;;;8.40;99.90;;;;;;6241771;22;20272;-81
2022/09/23 01:15:02;;;;;;;6.32;5.82;;;8.40;99.90;;;;;;6238184;23;20205;-81
2022/09/23 01:17:38;;;;;;;8.43;7.32;;;8.40;99.90;;;;;;6239402;23;20189;-81
2022/09/23 01:20:35;;;;;;;8.35;7.45;;;8.40;99.90;;;;;;6239388;23;20198;-81
2022/09/23 01:23:17;;;;;;;7.93;7.22;;;8.40;99.90;;;;;;6200911;23;20199;-80
2022/09/23 01:26:06;;;;;;;9.05;7.43;;;8.40;99.90;;;;;;6230468;23;20214;-81
2022/09/23 01:28:51;;;;;;;8.02;7.32;;;8.40;99.90;;;;;;6238569;22;20415;-80
2022/09/23 01:31:25;;;;;;;7.95;7.35;;;8.40;99.90;;;;;;6238643;22;20577;-81
2022/09/23 01:33:56;;;;;;;8.63;7.93;;;8.40;99.90;;;;;;6226309;23;20301;-81
2022/09/23 01:36:28;;;;;;;10.65;8.30;;;8.40;99.90;;;;;;6237704;23;20237;-81
2022/09/23 01:39:03;;;;;;;10.55;9.65;;;8.30;99.90;;;;;;6238058;23;20274;-81
2022/09/23 01:41:46;;;;;;;9.63;8.77;;;8.30;99.90;;;;;;6248478;22;20197;-81
2022/09/23 01:44:20;;;;;;;10.35;9.43;;;8.30;99.90;;;;;;6235921;22;20268;-81
2022/09/23 01:46:53;;;;;;;10.82;9.70;;;8.30;99.90;;;;;;6239700;23;20330;-81
2022/09/23 01:49:26;;;;;;;12.38;9.15;;;8.30;99.90;;;;;;6237219;23;20199;-81
2022/09/23 01:52:00;;;;;;;10.48;9.55;;;8.20;99.90;;;;;;6238969;23;20220;-80
2022/09/23 01:54:37;;;;;;;11.77;9.77;;;8.20;99.90;;;;;;6237792;22;20248;-81
2022/09/23 01:57:09;;;;;;;10.32;9.45;;;8.20;99.90;;;;;;6237491;23;20188;-81
2022/09/23 01:59:39;;;;;;;10.98;9.93;;;8.20;99.90;;;;;;6237562;23;20241;-81
2022/09/23 02:02:13;;;;;;;11.35;10.35;;;8.20;99.90;;;;;;6239904;22;20276;-81
2022/09/23 02:04:46;;;;;;;10.40;9.50;;;8.20;99.90;;;;;;6237481;22;20241;-80
2022/09/23 02:07:20;;;;;;;10.77;9.68;;;8.10;99.90;;;;;;6238658;23;20224;-80
2022/09/23 02:09:58;;;;;;;11.27;10.27;;;8.10;99.90;;;;;;6250308;22;20210;-81
2022/09/23 02:12:28;;;;;;;10.32;9.35;;;8.10;99.90;;;;;;6238596;23;20200;-81
2022/09/23 02:15:01;;;;;;;11.05;10.15;;;8.10;99.90;;;;;;6237438;22;20225;-81
2022/09/23 02:17:38;;;;;;;10.75;9.75;;;8.00;99.90;;;;;;6234955;22;20586;-81
2022/09/23 02:20:07;;;;;;;11.30;10.15;;;8.00;99.90;;;;;;6239729;22;20207;-81
2022/09/23 02:22:40;;;;;;;10.85;9.88;;;8.00;99.90;;;;;;6239825;23;20187;-81
2022/09/23 02:25:08;;;;;;;10.68;9.68;;;8.00;99.90;;;;;;6236417;22;20221;-82
2022/09/23 02:27:40;;;;;;;10.85;9.85;;;7.90;99.90;;;;;;6238572;23;20194;-82
2022/09/23 02:30:12;;;;;;;11.60;10.40;;;7.90;99.90;;;;;;6267532;22;20640;-80
2022/09/23 02:32:49;;;;;;;11.98;10.98;;;7.80;99.90;;;;;;6242382;22;20529;-81
2022/09/23 02:35:21;;;;;;;11.05;9.95;;;7.80;99.90;;;;;;6236906;22;20293;-82
2022/09/23 02:37:55;;;;;;;11.25;10.25;;;7.80;99.90;;;;;;6239510;22;20212;-81
2022/09/23 02:40:28;;;;;;;11.63;10.45;;;7.70;99.90;;;;;;6237106;23;20236;-81
2022/09/23 02:43:04;;;;;;;10.88;9.98;;;7.70;99.90;;;;;;6242186;22;20199;-81
2022/09/23 02:45:32;;;;;;;10.90;9.88;;;7.70;99.90;;;;;;6239888;22;20225;-81
2022/09/23 02:48:06;;;;;;;11.10;10.10;;;7.70;99.90;;;;;;6239703;23;20186;-81
2022/09/23 02:50:34;;;;;;;11.07;10.07;;;7.70;99.90;;;;;;6238375;23;20187;-81
2022/09/23 02:53:01;;;;;;;9.98;9.07;;;7.60;99.90;;;;;;6242548;22;20520;-81
2022/09/23 02:55:30;;;;;;;10.25;9.35;;;7.60;99.90;;;;;;6241183;22;20248;-81
2022/09/23 02:57:59;;;;;;;10.75;9.82;;;7.60;99.90;;;;;;6238780;23;20232;-81
2022/09/23 03:00:34;;;;;;;10.77;9.77;;;7.50;99.90;;;;;;6236947;23;20242;-81
2022/09/23 03:03:18;;;;;;;9.88;9.18;;;7.60;99.90;;;;;;6236227;22;20196;-81
2022/09/23 03:05:53;;;;;;;11.10;8.88;;;7.50;99.90;;;;;;6237493;22;20210;-81
2022/09/23 03:08:41;;;;;;;9.23;8.52;;;7.50;99.90;;;;;;6238967;22;20734;-81
2022/09/23 03:11:12;;;;;;;9.60;8.70;;;7.50;99.90;;;;;;6246151;22;20189;-80
2022/09/23 03:14:03;;;;;;;9.10;8.27;;;7.50;99.90;;;;;;6220058;23;20212;-80
2022/09/23 03:16:39;;;;;;;10.73;9.73;;;7.50;99.90;;;;;;6231810;23;20793;-81
2022/09/23 03:19:19;;;;;;;10.07;9.23;;;7.50;99.90;;;;;;6238313;23;20189;-81
2022/09/23 03:21:54;;;;;;;9.98;8.98;;;7.50;99.90;;;;;;6238327;23;20656;-81
2022/09/23 03:24:24;;;;;;;9.73;8.90;;;7.50;99.90;;;;;;6237970;23;20284;-81
2022/09/23 03:26:52;;;;;;;9.20;8.50;;;7.50;99.90;;;;;;6237889;22;20193;-81
2022/09/23 03:29:20;;;;;;;9.52;8.63;;;7.40;99.90;;;;;;6236698;23;20578;-81
2022/09/23 03:31:48;;;;;;;8.23;7.40;;;7.40;99.90;;;;;;6239596;23;20223;-81
2022/09/23 03:34:22;;;;;;;9.73;8.90;;;7.40;99.90;;;;;;6236774;23;20295;-81
2022/09/23 03:36:59;;;;;;;8.90;8.13;;;7.30;99.90;;;;;;6238122;23;20222;-81
2022/09/23 03:39:35;;;;;;;9.25;8.00;;;7.30;99.90;;;;;;6236409;22;20201;-81
2022/09/23 03:42:11;;;;;;;9.45;8.55;;;7.20;99.90;;;;;;6218690;23;20188;-81
2022/09/23 03:44:42;;;;;;;9.63;8.85;;;7.20;99.90;;;;;;6236954;23;20209;-81
2022/09/23 03:47:11;;;;;;;9.07;8.38;;;7.20;99.90;;;;;;6238546;23;20216;-81
2022/09/23 03:49:40;;;;;;;9.65;8.80;;;7.20;99.90;;;;;;6258168;22;20601;-81
2022/09/23 03:52:07;;;;;;;9.70;8.60;;;7.10;99.90;;;;;;6238015;23;20221;-78
2022/09/23 03:54:34;;;;;;;9.45;8.65;;;7.10;99.90;;;;;;6236562;22;20221;-80
2022/09/23 03:57:02;;;;;;;9.70;8.77;;;7.10;99.90;;;;;;6237502;22;20263;-80
2022/09/23 03:59:30;;;;;;;9.82;8.93;;;7.10;99.90;;;;;;6236869;22;20264;-80
2022/09/23 04:01:58;;;;;;;9.88;8.90;;;7.00;99.90;;;;;;6237913;22;20623;-80
2022/09/23 04:04:26;;;;;;;9.45;8.75;;;7.00;99.90;;;;;;6239341;23;20224;-80
2022/09/23 04:06:54;;;;;;;9.25;8.55;;;7.00;99.90;;;;;;6242416;22;20196;-80
2022/09/23 04:09:22;;;;;;;9.02;8.23;;;7.00;99.90;;;;;;6243181;22;20213;-80
2022/09/23 04:11:50;;;;;;;9.20;8.40;;;6.90;99.90;;;;;;6240434;23;20212;-81
2022/09/23 04:14:18;;;;;;;9.57;8.70;;;6.90;99.90;;;;;;6236924;22;20744;-81
2022/09/23 04:16:46;;;;;;;10.45;9.45;;;6.90;99.90;;;;;;6239930;23;20188;-81
2022/09/23 04:19:14;;;;;;;9.90;8.75;;;6.90;99.90;;;;;;6239234;23;20708;-81
2022/09/23 04:21:42;;;;;;;9.05;8.30;;;6.80;99.90;;;;;;6239914;23;20189;-80
2022/09/23 04:24:11;;;;;;;9.50;8.52;;;6.80;99.90;;;;;;6235766;22;20288;-79
2022/09/23 04:26:39;;;;;;;8.25;7.55;;;6.70;99.90;;;;;;6236529;23;20219;-86
2022/09/23 04:29:06;;;;;;;9.05;8.15;;;6.70;99.90;;;;;;6249780;22;20195;-80
2022/09/23 04:31:34;;;;;;;9.25;8.25;;;6.70;99.90;;;;;;6239502;23;20184;-80
2022/09/23 04:34:01;;;;;;;8.23;7.53;;;6.70;99.90;;;;;;6238972;22;20253;-79
2022/09/23 04:36:29;;;;;;;11.05;8.80;;;6.70;99.90;;;;;;6233772;22;20185;-80
2022/09/23 04:38:56;;;;;;;9.23;8.52;;;6.70;99.90;;;;;;6234110;22;20644;-80
2022/09/23 04:41:25;;;;;;;9.27;8.45;;;6.70;99.90;;;;;;6239878;22;20210;-78
2022/09/23 04:43:52;;;;;;;9.52;8.73;;;6.70;99.90;;;;;;6236711;23;20221;-80
2022/09/23 04:46:19;;;;;;;9.82;9.02;;;6.70;99.90;;;;;;6238507;23;20619;-80
2022/09/23 04:48:46;;;;;;;8.90;8.20;;;6.70;99.90;;;;;;6233740;22;20258;-82
2022/09/23 04:51:17;;;;;;;8.75;8.05;;;6.70;99.90;;;;;;6231774;22;20224;-81
2022/09/23 04:53:46;;;;;;;10.02;8.90;;;6.70;99.90;;;;;;6223609;22;20236;-80
2022/09/23 04:56:15;;;;;;;9.27;8.48;;;6.70;99.90;;;;;;6205845;22;20204;-82
2022/09/23 04:58:45;;;;;;;9.23;8.43;;;6.70;99.90;;;;;;6229912;23;20188;-82
2022/09/23 05:01:15;;;;;;;9.50;8.70;;;6.70;99.90;;;;;;6225789;22;20745;-83
2022/09/23 05:03:43;;;;;;;9.07;8.38;;;6.70;99.90;;;;;;6230484;22;20824;-79
2022/09/23 05:06:12;;;;;;;9.73;8.82;;;6.70;99.90;;;;;;6220054;22;20185;-81
2022/09/23 05:08:40;;;;;;;8.70;7.90;;;6.90;99.90;;;;;;6243878;22;20196;-87
2022/09/23 05:11:07;;;;;;;9.00;8.30;;;6.70;99.90;;;;;;6232762;22;20215;-71
2022/09/23 05:13:35;;;;;;;9.95;8.95;;;6.70;99.90;;;;;;6232480;22;20200;-70
2022/09/23 05:16:06;;;;;;;9.43;8.63;;;6.70;99.90;;;;;;6244169;22;20243;-81
2022/09/23 05:18:34;;;;;;;8.98;8.27;;;6.70;99.90;;;;;;6239174;22;20177;-81
2022/09/23 05:21:01;;;;;;;9.90;9.10;;;6.70;99.90;;;;;;6234202;22;20248;-80
2022/09/23 05:23:29;;;;;;;8.63;7.95;;;6.70;99.90;;;;;;6222378;22;20672;-80
2022/09/23 05:25:57;;;;;;;9.45;8.65;;;6.70;99.90;;;;;;6234960;22;20225;-81
2022/09/23 05:28:26;;;;;;;9.55;8.75;;;6.60;99.90;;;;;;6230701;23;20548;-81
2022/09/23 05:30:55;;;;;;;8.80;8.10;;;6.60;99.90;;;;;;6229542;22;20188;-71
2022/09/23 05:33:23;;;;;;;9.88;9.00;;;6.60;99.90;;;;;;6238563;22;20255;-72
2022/09/23 05:35:50;;;;;;;10.02;9.13;;;6.60;99.90;;;;;;6226066;22;20195;-80
2022/09/23 05:38:17;;;;;;;9.32;8.50;;;6.70;99.90;;;;;;6235935;23;20185;-73
2022/09/23 05:40:44;;;;;;;9.88;8.88;;;6.70;99.90;;;;;;6227061;22;20180;-81
2022/09/23 05:43:11;;;;;;;9.75;8.85;;;6.70;99.90;;;;;;6228138;22;20189;-81
2022/09/23 05:45:39;;;;;;;9.80;8.90;;;6.70;99.90;;;;;;6228096;22;20571;-81
2022/09/23 05:48:06;;;;;;;9.70;8.77;;;6.70;99.90;;;;;;6246367;22;20627;-81
2022/09/23 05:50:34;;;;;;;9.60;8.70;;;6.80;99.90;;;;;;6231479;22;20211;-81
2022/09/23 05:53:01;;;;;;;10.32;9.43;;;6.90;99.90;;;;;;6249672;22;20178;-81
2022/09/23 05:55:28;;;;;;;9.30;8.45;;;7.00;99.90;;;;;;6235800;22;20623;-82
2022/09/23 05:57:55;;;;;;;8.43;7.57;;;7.10;99.90;;;;;;6225339;22;20271;-80
2022/09/23 06:00:22;;;;;;;8.50;7.70;;;7.30;99.90;;;;;;6239196;23;20193;-80
2022/09/23 06:02:49;;;;;;;8.40;7.70;;;7.50;99.90;;;;;;6238458;22;20647;-79
2022/09/23 06:05:16;;;;;;;8.75;7.85;;;7.70;99.90;;;;;;6232657;23;20285;-80
2022/09/23 06:07:45;;;;;;;10.32;8.45;;;7.80;99.90;;;;;;6221679;23;20248;-79
2022/09/23 06:10:12;;;;;;;9.93;8.90;;;8.00;99.90;;;;;;6239965;23;20191;-79
2022/09/23 06:12:41;;;;;;;9.13;8.32;;;8.00;99.90;;;;;;6238763;22;20264;-80
2022/09/23 06:15:09;;;;;;;8.90;7.78;;;8.10;99.90;;;;;;6248337;22;20212;-79
2022/09/23 06:17:36;;;;;;;8.45;7.75;;;8.20;99.90;;;;;;6266841;22;20189;-79
2022/09/23 06:20:03;;;;;;;8.15;7.45;;;8.40;99.90;;;;;;6239474;23;20620;-79
2022/09/23 06:22:30;;;;;;;8.65;7.32;;;8.60;99.90;;;;;;6259168;22;20189;-79
2022/09/23 06:24:59;;;;;;;8.48;7.68;;;8.80;99.90;;;;;;6225518;22;20218;-80
2022/09/23 06:27:26;;;;;;;8.60;7.82;;;8.90;99.90;;;;;;6228643;23;20193;-80
2022/09/23 06:29:53;;;;;;;8.45;7.65;;;9.00;99.90;;;;;;6232720;23;20244;-81
2022/09/23 06:32:21;;;;;;;8.15;6.85;;;9.20;99.90;;;;;;6243009;22;20246;-81
2022/09/23 06:34:48;;;;;;;7.20;6.60;;;9.40;99.90;;;;;;6241928;22;20219;-81
2022/09/23 06:37:15;;;;;;;8.25;7.55;;;9.60;99.90;;;;;;6240418;22;20188;-80
2022/09/23 06:39:42;;;;;;;7.40;6.55;;;9.80;99.90;;;;;;6265032;22;20191;-80
2022/09/23 06:42:11;;;;;;;11.88;6.88;;;9.90;99.90;;;;;;6239337;23;20234;-81
2022/09/23 06:44:38;;;;;;;8.20;7.05;;;10.00;99.90;;;;;;6239475;22;20230;-79
2022/09/23 06:47:08;;;;;;;7.28;6.53;;;10.20;99.90;;;;;;6237863;22;20264;-80
2022/09/23 06:49:36;;;;;;;6.40;5.90;;;10.30;99.90;;;;;;6216775;22;20655;-79
2022/09/23 06:52:05;;;;;;;6.63;6.13;;;10.60;99.90;;;;;;6232323;22;20271;-79
2022/09/23 06:54:32;;;;;;;6.57;5.97;;;10.80;99.90;;;;;;6239951;22;20228;-79
2022/09/23 06:56:58;;;;;;;7.82;6.40;;;10.90;99.90;;;;;;6224563;23;20260;-79
2022/09/23 06:59:27;;;;;;;6.97;6.32;;;10.90;99.90;;;;;;6236749;23;20181;-79
2022/09/23 07:01:54;;;;;;;6.22;5.63;;;11.00;99.90;;;;;;6238171;22;20200;-79
2022/09/23 07:04:21;;;;;;;6.82;6.03;;;11.10;99.90;;;;;;6235173;22;20204;-79
2022/09/23 07:06:48;;;;;;;6.45;5.85;;;10.90;99.90;;;;;;6235438;23;20200;-79
2022/09/23 07:09:15;;;;;;;5.78;5.28;;;10.90;99.90;;;;;;6238588;22;20204;-79
2022/09/23 07:11:42;;;;;;;6.00;5.53;;;11.00;99.90;;;;;;6236889;22;20189;-79
2022/09/23 07:14:09;;;;;;;6.07;5.57;;;11.10;99.90;;;;;;6237418;22;20680;-79
2022/09/23 07:16:38;;;;;;;7.22;6.22;;;11.50;99.90;;;;;;6236870;23;20213;-80
2022/09/23 07:19:05;;;;;;;7.07;6.47;;;11.50;99.90;;;;;;6233469;22;20223;-79
2022/09/23 07:21:32;;;;;;;6.65;6.15;;;11.50;99.90;;;;;;6238029;23;20185;-79
2022/09/23 07:23:59;;;;;;;6.07;5.57;;;11.70;99.90;;;;;;6238736;22;20229;-79
2022/09/23 07:26:26;;;;;;;7.15;6.10;;;11.90;99.90;;;;;;6219887;23;20560;-79
2022/09/23 07:28:55;;;;;;;7.03;6.45;;;12.20;99.90;;;;;;6208484;22;20212;-79
2022/09/23 07:31:22;;;;;;;6.40;5.80;;;12.50;99.90;;;;;;6225499;22;20529;-80
2022/09/23 07:33:56;;;;;;;5.97;5.57;;;12.80;99.90;;;;;;6241233;22;20482;-80
2022/09/23 07:36:23;;;;;;;6.20;5.70;;;13.10;99.90;;;;;;6233623;22;20535;-81
2022/09/23 07:38:50;;;;;;;6.40;5.90;;;13.40;99.90;;;;;;6235823;22;20436;-80
2022/09/23 07:41:18;;;;;;;7.30;6.60;;;13.50;99.90;;;;;;6231931;22;20441;-80
2022/09/23 07:43:46;;;;;;;6.13;5.50;;;13.90;99.90;;;;;;6232281;22;20534;-80
2022/09/23 07:46:16;;;;;;;6.63;5.93;;;13.80;99.90;;;;;;6236906;22;20566;-80
2022/09/23 07:48:44;;;;;;;5.50;5.10;;;13.70;99.90;;;;;;6234381;22;20783;-80
2022/09/23 07:51:16;;;;;;;7.63;6.03;;;13.60;99.90;;;;;;6236309;23;20434;-80
2022/09/23 07:53:47;;;;;;;5.73;5.17;;;13.60;99.90;;;;;;6236667;22;20507;-80
2022/09/23 07:56:14;;;;;;;6.30;5.30;;;13.60;99.90;;;;;;6238596;23;20540;-80
2022/09/23 07:58:41;;;;;;;6.30;5.40;;;13.30;99.90;;;;;;6236414;22;20437;-80
2022/09/23 08:01:10;;;;;;;5.87;5.37;;;13.00;99.90;;;;;;6238702;23;20430;-80
2022/09/23 08:03:38;;;;;;;5.40;4.90;;;13.00;99.90;;;;;;6237938;22;20458;-80
2022/09/23 08:06:07;;;;;;;5.55;5.15;;;13.00;99.90;;;;;;6238829;22;20212;-79
2022/09/23 08:08:38;;;;;;;5.60;5.20;;;12.70;99.90;;;;;;6237010;22;20184;-80
2022/09/23 08:11:09;;;;;;;5.50;5.00;;;12.70;99.90;;;;;;6227316;22;20219;-80
2022/09/23 08:13:36;;;;;;;5.97;4.95;;;12.80;99.90;;;;;;6247916;22;20260;-80
2022/09/23 08:16:03;;;;;;;5.30;4.80;;;12.90;99.90;;;;;;6237746;22;20193;-80
2022/09/23 08:18:30;;;;;;;5.40;5.00;;;13.00;99.90;;;;;;6234755;22;20514;-81
2022/09/23 08:20:57;;;;;;;4.90;4.50;;;13.10;99.90;;;;;;6230188;23;20427;-80
2022/09/23 08:23:24;;;;;;;5.50;5.10;;;13.30;99.90;;;;;;6236830;22;20450;-80
2022/09/23 08:25:58;;;;;;;5.13;4.63;;;13.60;99.90;;;;;;6238157;23;20559;-80
2022/09/23 08:28:26;;;;;;;3.93;3.63;;;13.90;99.90;;;;;;6238638;23;20440;-80
2022/09/23 08:30:53;;;;;;;4.77;4.37;;;14.10;99.90;;;;;;6236664;22;20439;-80
2022/09/23 08:33:20;;;;;;;4.13;3.83;;;14.10;99.90;;;;;;6238131;22;20456;-80
2022/09/23 08:35:47;;;;;;;4.10;3.80;;;14.40;99.90;;;;;;6237725;23;20431;-80
2022/09/23 08:38:14;;;;;;;3.83;3.53;;;14.20;99.90;;;;;;6252705;22;20507;-80
2022/09/23 08:40:46;;;;;;;3.63;3.37;;;14.30;99.90;;;;;;6233029;22;20434;-80
2022/09/23 08:43:28;;;;;;;3.63;3.30;;;14.50;99.90;;;;;;6237108;23;20508;-80
2022/09/23 08:46:00;;;;;;;4.73;3.67;;;14.50;99.90;;;;;;6232306;22;20543;-80
2022/09/23 08:48:29;;;;;;;3.43;3.17;;;14.50;99.90;;;;;;6237852;23;20947;-80
2022/09/23 08:51:02;;;;;;;4.33;3.50;;;14.50;99.90;;;;;;6228773;22;20433;-80
2022/09/23 08:53:33;;;;;;;4.63;3.63;;;14.60;99.90;;;;;;6236779;22;20529;-78
2022/09/23 08:56:05;;;;;;;4.03;3.73;;;14.70;99.90;;;;;;6233030;22;20520;-80
2022/09/23 08:58:46;;;;;;;3.50;3.30;;;15.00;99.90;;;;;;6239289;22;20437;-80
2022/09/23 09:01:21;;;;;;;4.20;3.90;;;15.40;99.90;;;;;;6235475;22;20521;-80
2022/09/23 09:03:52;;;;;;;4.30;4.00;;;15.60;99.90;;;;;;6236744;22;20461;-80
2022/09/23 09:06:25;;;;;;;3.67;3.37;;;15.80;99.90;;;;;;6257112;22;20457;-81
2022/09/23 09:08:57;;;;;;;4.33;3.93;;;15.80;99.90;;;;;;6236321;22;20430;-81
2022/09/23 09:11:31;;;;;;;4.00;3.70;;;15.70;99.90;;;;;;6250513;22;20434;-80
2022/09/23 09:14:05;;;;;;;4.03;3.57;;;15.90;99.90;;;;;;6236158;22;20457;-81
2022/09/23 09:16:46;;;;;;;3.67;3.37;;;16.00;99.90;;;;;;6239002;22;20445;-81
2022/09/23 09:19:18;;;;;;;3.87;3.57;;;16.00;99.90;;;;;;6230571;22;20422;-81
2022/09/23 09:21:47;;;;;;;3.70;3.40;;;16.30;99.90;;;;;;6228167;23;20525;-81
2022/09/23 09:24:19;;;;;;;3.43;3.13;;;16.30;99.90;;;;;;6234023;22;20449;-82
2022/09/23 09:26:46;;;;;;;3.63;3.43;;;16.30;99.90;;;;;;6239324;23;20595;-81
2022/09/23 09:29:19;;;;;;;3.60;3.30;;;16.50;99.90;;;;;;6234281;22;20426;-81
2022/09/23 09:31:48;;;;;;;3.77;3.10;;;16.60;99.90;;;;;;6238074;23;20913;-81
2022/09/23 09:34:26;;;;;;;4.63;3.00;;;16.90;99.90;;;;;;6247425;22;20552;-81
2022/09/23 09:37:00;;;;;;;4.50;3.60;;;17.10;99.90;;;;;;6236777;22;20497;-81
2022/09/23 09:39:27;;;;;;;3.70;3.40;;;17.30;99.90;;;;;;6236601;23;20445;-81
2022/09/23 09:41:57;;;;;;;3.40;3.10;;;17.50;99.90;;;;;;6248134;22;20494;-81
2022/09/23 09:44:31;;;;;;;3.77;3.47;;;17.50;99.90;;;;;;6247007;22;20947;-81
2022/09/23 09:47:17;;;;;;;5.67;3.80;;;18.00;99.90;;;;;;6237814;23;20462;-81
2022/09/23 09:49:50;;;;;;;4.47;4.10;;;18.10;99.90;;;;;;6235069;22;20434;-78
2022/09/23 09:52:22;;;;;;;4.37;3.70;;;18.40;99.90;;;;;;6234098;22;20441;-81
2022/09/23 09:54:50;;;;;;;4.10;3.73;;;18.50;99.90;;;;;;6236137;22;20505;-81
2022/09/23 09:57:29;;;;;;;4.53;4.13;;;18.80;99.90;;;;;;6236008;22;20535;-81
2022/09/23 09:59:58;;;;;;;5.23;4.43;;;18.80;99.90;;;;;;6233121;23;20429;-81
2022/09/23 10:02:30;;;;;;;5.20;4.77;;;19.00;99.90;;;;;;6235329;22;20474;-82
2022/09/23 10:05:00;;;;;;;4.33;4.03;;;19.20;99.90;;;;;;6239815;23;20437;-82
2022/09/23 10:07:29;;;;;;;4.40;4.00;;;19.40;99.90;;;;;;6226186;22;20466;-82
2022/09/23 10:09:56;;;;;;;3.53;3.33;;;19.90;99.90;;;;;;6220322;22;20485;-83
2022/09/23 10:12:25;;;;;;;4.20;3.90;;;20.30;99.90;;;;;;6230806;22;20426;-81
2022/09/23 10:14:56;;;;;;;3.90;3.50;;;20.80;99.10;;;;;;6262603;22;20482;-82
2022/09/23 10:17:31;;;;;;;4.17;3.87;;;21.10;98.30;;;;;;6233958;22;20920;-82
2022/09/23 10:20:02;;;;;;;4.60;3.67;;;21.20;97.90;;;;;;6236644;22;20469;-81
2022/09/23 10:22:34;;;;;;;4.30;4.00;;;21.50;97.30;;;;;;6239300;22;20899;-82
2022/09/23 10:25:09;;;;;;;4.77;3.80;;;21.90;96.40;;;;;;6236241;22;20432;-82
2022/09/23 10:27:37;;;;;;;3.73;3.43;;;22.40;95.40;;;;;;6235191;22;20461;-82
2022/09/23 10:30:20;;;;;;;4.73;4.10;;;22.90;94.80;;;;;;6237266;22;20437;-81
2022/09/23 10:32:49;;;;;;;4.40;4.00;;;23.40;93.80;;;;;;6234754;22;20960;-82
2022/09/23 10:35:19;;;;;;;3.70;3.40;;;23.50;93.20;;;;;;6242946;22;20464;-82
2022/09/23 10:37:49;;;;;;;4.00;3.70;;;23.90;92.80;;;;;;6231862;22;20438;-82
2022/09/23 10:49:26;;;;;;;3.63;3.33;;;25.90;85.30;;;;;;6248807;22;20458;-82
2022/09/23 10:52:06;;;;;;;4.23;3.70;;;26.00;83.30;;;;;;6196342;22;20433;-82
2022/09/23 10:54:46;;;;;;;4.63;4.30;;;26.10;81.10;;;;;;6220408;22;20522;-81
2022/09/23 10:57:40;;;;;;;5.40;4.07;;;26.20;79.20;;;;;;6250575;22;20520;-82
2022/09/23 11:00:21;;;;;;;5.80;4.20;;;25.60;78.90;;;;;;6235038;22;20441;-81
2022/09/23 11:03:08;;;;;;;3.80;3.50;;;25.70;78.30;;;;;;6234147;23;20490;-81
2022/09/23 11:05:46;;;;;;;3.90;3.70;;;25.70;79.10;;;;;;6224993;22;20437;-84
2022/09/23 11:08:28;;;;;;;4.13;3.27;;;25.80;78.60;;;;;;6238275;22;20434;-83
2022/09/23 11:11:10;;;;;;;6.03;3.97;;;26.00;77.90;;;;;;6235700;22;20468;-82
2022/09/23 11:13:55;;;;;;;4.10;3.47;;;26.20;78.30;;;;;;6237139;22;20498;-83
2022/09/23 11:16:37;;;;;;;5.13;3.20;;;26.40;76.70;;;;;;6235606;22;20479;-83
2022/09/23 11:19:25;;;;;;;4.37;3.50;;;26.70;76.20;;;;;;6250622;22;20963;-82
2022/09/23 11:22:07;;;;;;;3.50;3.20;;;27.10;74.10;;;;;;6234587;23;20931;-82
2022/09/23 11:25:15;;;;;;;4.73;3.60;;;27.30;74.30;;;;;;6232102;22;20473;-81
2022/09/23 11:27:58;;;;;;;3.80;3.50;;;27.80;72.70;;;;;;6177490;22;20516;-84
2022/09/23 11:30:34;;;;;;;2.90;2.70;;;27.90;70.70;;;;;;6212325;22;20577;-77
2022/09/23 11:33:25;;;;;;;3.43;2.90;;;28.20;71.10;;;;;;6227957;22;20582;-83
2022/09/23 11:35:59;;;;;;;3.60;3.30;;;28.50;67.70;;;;;;6208758;22;20446;-83
2022/09/23 11:38:35;;;;;;;3.43;3.13;;;28.70;66.80;;;;;;6235878;22;20435;-84
2022/09/23 11:41:16;;;;;;;4.10;3.20;;;28.90;66.70;;;;;;6225928;22;20477;-82
2022/09/23 11:43:50;;;;;;;4.10;3.70;;;28.90;65.90;;;;;;6219055;22;20453;-82
2022/09/23 11:46:27;;;;;;;3.80;3.50;;;28.80;63.90;;;;;;6220254;22;20489;-82
2022/09/23 11:49:02;;;;;;;3.13;2.90;;;28.60;64.20;;;;;;6231488;22;20454;-82
2022/09/23 11:51:36;;;;;;;3.40;3.20;;;28.60;66.00;;;;;;6231873;22;20448;-82
2022/09/23 11:54:13;;;;;;;3.57;3.30;;;28.80;65.30;;;;;;6237797;22;20446;-82
2022/09/23 11:56:45;;;;;;;3.67;3.37;;;28.80;63.30;;;;;;6227912;23;20956;-81
2022/09/23 11:59:18;;;;;;;2.87;2.67;;;28.90;62.20;;;;;;6229452;22;20443;-82
2022/09/23 12:01:50;;;;;;;3.10;2.90;;;28.80;62.70;;;;;;6233563;22;20955;-82
2022/09/23 12:04:27;;;;;;;3.97;3.67;;;29.00;63.50;;;;;;6232102;22;20430;-81
2022/09/23 12:06:59;;;;;;;3.30;3.00;;;29.20;62.70;;;;;;6236668;23;20469;-81
2022/09/23 12:09:36;;;;;;;5.03;4.07;;;29.40;62.20;;;;;;6227798;22;20924;-82
2022/09/23 12:12:08;;;;;;;3.37;3.07;;;29.60;60.00;;;;;;6234829;22;20464;-81
2022/09/23 12:14:44;;;;;;;3.80;3.17;;;29.50;61.10;;;;;;6234563;22;20438;-82
2022/09/23 12:17:54;;;;;;;4.00;2.97;;;29.60;61.10;;;;;;6235379;22;20429;-82
2022/09/23 12:20:52;;;;;;;4.30;3.50;;;29.50;60.40;;;;;;6233834;22;20881;-82
2022/09/23 12:23:36;;;;;;;3.37;3.07;;;29.30;61.10;;;;;;6241483;22;20482;-82
2022/09/23 12:26:09;;;;;;;3.60;3.40;;;28.90;61.50;;;;;;6215253;22;20422;-82
2022/09/23 12:28:40;;;;;;;4.97;3.30;;;28.70;61.60;;;;;;6235736;22;21020;-82
2022/09/23 12:31:13;;;;;;;3.60;3.30;;;28.40;61.90;;;;;;6236645;23;20426;-82
2022/09/23 12:33:47;;;;;;;3.40;3.10;;;28.20;62.40;;;;;;6230822;22;21202;-82
2022/09/23 12:36:14;;;;;;;3.80;3.50;;;27.80;63.80;;;;;;6236676;22;20429;-81
2022/09/23 12:38:49;;;;;;;3.37;3.03;;;27.50;64.20;;;;;;6220416;22;20525;-81
2022/09/23 12:41:26;;;;;;;5.60;3.00;;;27.40;64.40;;;;;;6215790;22;20426;-81
2022/09/23 12:43:55;;;;;;;3.10;2.80;;;27.40;64.20;;;;;;6232202;22;20482;-82
2022/09/23 12:46:24;;;;;;;3.73;3.40;;;27.30;64.20;;;;;;6229039;23;20454;-85
2022/09/23 12:49:03;;;;;;;3.13;2.90;;;27.30;63.70;;;;;;6231798;22;20932;-81
2022/09/23 12:51:31;;;;;;;3.33;3.03;;;27.40;64.60;;;;;;6229829;22;20472;-80
2022/09/23 12:54:24;;;;;;;3.07;2.60;;;27.60;64.10;;;;;;6233870;22;20458;-82
2022/09/23 12:57:04;;;;;;;2.60;2.40;;;27.80;64.40;;;;;;6219616;22;20525;-81
2022/09/23 12:59:52;;;;;;;3.23;2.80;;;28.00;62.70;;;;;;6226138;22;20439;-81
2022/09/23 13:02:34;;;;;;;2.60;2.50;;;28.30;61.20;;;;;;6234422;22;20489;-81
2022/09/23 13:08:08;;;;;;;2.77;2.57;;;28.70;60.10;;;;;;6233100;23;20461;-80
2022/09/23 13:10:41;;;;;;;2.27;2.07;;;29.00;59.60;;;;;;6216172;23;20514;-81
2022/09/23 13:13:21;;;;;;;2.30;2.10;;;28.70;59.30;;;;;;6233597;22;20454;-79
2022/09/23 13:15:48;;;;;;;2.90;2.43;;;28.80;59.80;;;;;;6224121;22;20438;-80
2022/09/23 13:18:53;;;;;;;2.87;2.60;;;28.40;60.30;;;;;;6207809;22;20849;-81
2022/09/23 13:21:59;;;;;;;3.00;2.80;;;28.00;60.40;;;;;;6102424;23;21251;-80
2022/09/23 13:24:39;;;;;;;2.83;2.40;;;28.00;60.20;;;;;;6235484;23;20445;-82
2022/09/23 13:27:17;;;;;;;2.93;2.73;;;28.10;60.80;;;;;;6231157;22;20534;-80
2022/09/23 13:29:51;;;;;;;3.30;3.00;;;28.00;60.50;;;;;;6227596;22;21042;-80